»·PEaware :: CFRTW KMHV-KSBD

CFRTW :: KMHV-KSBD

FLIGHT INFORMATION

Flight Status: Arrived
Operator: Unknown
More flights by this operator :: More flights under this callsign
Pilot: Kevin W. (41575)
Aircraft: CESSNA 172 SKYHAWK
(C172)
More flights by this aircraft type
Origin: KMHV Mojave
United States
Destination: KSBD San Bernardino Intl
United States
More flights between these airports :: More routes between these airports
Route: -GWF-PMD-
File this flight plan on PilotEdge
Remarks:
Altitude:
(Current/Filed)
7,500ft
Speed:
(Current/Filed)
110kts
Departed: 25-Mar-23 08:14 PM
Arrived: 25-Mar-23 08:59 PM
Distance/Time
Traveled:
73nm/0:45
Distance/Time
To Go:
Arrived

Flight Plot

Page will automatically refresh every two minutes.

Flight plan parsing failed; only flown route is shown


Map Options




Map Legend


Flown Route
Filed Route
Departure Airport
Arrival Airport
Navaid (VOR, NDB)
Fix

Horizontal Profiles

Position Reports

Time Latitude Longitude Heading Altitude Ground
Speed
25-Mar-23 19:49 35.057236 -118.160855 269 2774ft 0kts
25-Mar-23 19:50 35.057236 -118.160855 269 2774ft 0kts
25-Mar-23 19:51 35.057236 -118.160855 269 2774ft 0kts
25-Mar-23 19:52 35.057236 -118.160855 269 2774ft 0kts
25-Mar-23 19:53 35.057236 -118.160855 269 2774ft 0kts
25-Mar-23 19:54 35.057236 -118.160855 269 2774ft 0kts
25-Mar-23 19:55 35.057236 -118.160855 269 2774ft 0kts
25-Mar-23 19:56 35.057236 -118.160855 269 2774ft 0kts
25-Mar-23 19:57 35.057236 -118.160855 269 2774ft 0kts
25-Mar-23 19:58 35.057236 -118.160855 269 2774ft 0kts
25-Mar-23 19:59 35.057236 -118.160855 269 2774ft 0kts
25-Mar-23 20:00 35.057236 -118.160855 269 2774ft 0kts
25-Mar-23 20:01 35.057236 -118.160855 269 2774ft 0kts
25-Mar-23 20:02 35.057236 -118.160855 269 2774ft 0kts
25-Mar-23 20:03 35.057238 -118.160879 280 2774ft 0kts
25-Mar-23 20:04 35.057648 -118.162312 269 2777ft 6kts
25-Mar-23 20:05 35.057735 -118.164393 301 2780ft 5kts
25-Mar-23 20:06 35.058047 -118.164879 299 2781ft 0kts
25-Mar-23 20:07 35.058047 -118.164879 299 2781ft 0kts
25-Mar-23 20:08 35.058198 -118.164962 1 2781ft 4kts
25-Mar-23 20:09 35.058447 -118.164970 324 2782ft 0kts
25-Mar-23 20:10 35.058447 -118.164970 324 2782ft 0kts
25-Mar-23 20:11 35.058447 -118.164970 324 2782ft 0kts
25-Mar-23 20:12 35.058471 -118.164999 308 2782ft 1kts
25-Mar-23 20:13 35.059199 -118.158027 90 2766ft 64kts
25-Mar-23 20:14 35.056755 -118.130408 107 3310ft 93kts
25-Mar-23 20:15 35.034833 -118.124477 200 4150ft 86kts
25-Mar-23 20:16 35.009497 -118.129784 199 4901ft 96kts
25-Mar-23 20:17 34.981436 -118.131042 192 5576ft 104kts
25-Mar-23 20:18 34.952162 -118.133455 204 6186ft 106kts
25-Mar-23 20:19 34.922684 -118.139366 205 6817ft 107kts
25-Mar-23 20:20 34.893058 -118.145641 200 7413ft 109kts
25-Mar-23 20:21 34.860644 -118.154261 201 7518ft 119kts
25-Mar-23 20:22 34.827542 -118.160390 198 7538ft 121kts
25-Mar-23 20:23 34.794650 -118.168374 201 7565ft 119kts
25-Mar-23 20:24 34.761487 -118.175477 200 7563ft 121kts
25-Mar-23 20:25 34.727587 -118.183642 192 7497ft 128kts
25-Mar-23 20:26 34.699776 -118.159385 124 7519ft 129kts
25-Mar-23 20:27 34.679424 -118.123542 120 7606ft 131kts
25-Mar-23 20:28 34.657936 -118.085780 120 7466ft 137kts
25-Mar-23 20:29 34.634781 -118.050048 129 7500ft 131kts
25-Mar-23 20:30 34.609687 -118.017753 117 7547ft 129kts
25-Mar-23 20:31 34.592204 -117.979919 110 7568ft 127kts
25-Mar-23 20:32 34.576275 -117.941177 114 7533ft 128kts
25-Mar-23 20:33 34.556887 -117.904541 116 7520ft 128kts
25-Mar-23 20:34 34.540296 -117.866259 112 7518ft 128kts
25-Mar-23 20:35 34.523733 -117.827789 116 7502ft 129kts
25-Mar-23 20:36 34.506295 -117.789486 115 7510ft 129kts
25-Mar-23 20:37 34.489724 -117.751095 116 7490ft 129kts
25-Mar-23 20:38 34.471132 -117.714115 121 7472ft 128kts
25-Mar-23 20:39 34.450078 -117.679655 125 7478ft 126kts
25-Mar-23 20:40 34.427570 -117.647314 127 7487ft 125kts
25-Mar-23 20:41 34.407920 -117.612715 120 7475ft 124kts
25-Mar-23 20:42 34.383955 -117.583352 141 7468ft 122kts
25-Mar-23 20:43 34.358186 -117.556555 138 7262ft 123kts
25-Mar-23 20:44 34.333744 -117.527990 141 6855ft 119kts
25-Mar-23 20:45 34.308858 -117.501723 140 6292ft 119kts
25-Mar-23 20:46 34.285066 -117.475230 138 5775ft 115kts
25-Mar-23 20:47 34.262952 -117.448836 131 4857ft 112kts
25-Mar-23 20:48 34.244473 -117.421081 129 4206ft 95kts
25-Mar-23 20:49 34.228383 -117.395870 128 3766ft 95kts
25-Mar-23 20:50 34.211469 -117.371639 134 3435ft 93kts
25-Mar-23 20:51 34.189948 -117.355049 156 3189ft 95kts
25-Mar-23 20:52 34.167030 -117.340642 153 2672ft 92kts
25-Mar-23 20:53 34.145110 -117.326092 153 2474ft 89kts
25-Mar-23 20:54 34.123214 -117.312306 154 2414ft 90kts
25-Mar-23 20:55 34.100912 -117.299619 157 2456ft 86kts
25-Mar-23 20:56 34.083867 -117.281034 83 2300ft 91kts
25-Mar-23 20:57 34.090349 -117.251775 65 1200ft 90kts
25-Mar-23 20:58 34.095476 -117.235920 332 1126ft 14kts
25-Mar-23 20:59 34.096203 -117.236378 336 1122ft 0kts
25-Mar-23 21:00 34.097530 -117.233879 70 1133ft 15kts
25-Mar-23 21:01 34.099284 -117.227995 72 1142ft 19kts
25-Mar-23 21:02 34.100808 -117.223344 355 1156ft 8kts
25-Mar-23 21:03 34.101435 -117.224258 267 1155ft 0kts
25-Mar-23 21:04 34.101512 -117.224819 280 1153ft 0kts
25-Mar-23 21:05 34.101652 -117.225093 276 1153ft 0kts
25-Mar-23 21:06 34.101652 -117.225093 276 1153ft 0kts
25-Mar-23 21:07 34.101652 -117.225093 276 1153ft 0kts

Navigation Log

Ident Type
Flight plan parsing failed, navigation log unavailable